createdAt,value
2023-02-19T00:00:35.624Z,61.10
2023-02-19T00:03:02.127Z,59.75
2023-02-19T00:05:28.700Z,58.30
2023-02-19T00:07:55.284Z,56.90
2023-02-19T00:10:21.666Z,57.45
2023-02-19T00:12:48.321Z,56.15
2023-02-19T00:15:15.050Z,57.15
2023-02-19T00:17:41.758Z,55.78
2023-02-19T00:20:08.126Z,52.40
2023-02-19T00:22:34.625Z,53.30
2023-02-19T00:25:00.947Z,53.95
2023-02-19T00:27:27.625Z,52.80
2023-02-19T00:29:54.020Z,50.65
2023-02-19T00:32:20.774Z,52.20
2023-02-19T00:34:47.201Z,49.85
2023-02-19T00:37:13.593Z,50.88
2023-02-19T00:39:40.556Z,46.90
2023-02-19T00:42:06.965Z,49.47
2023-02-19T00:44:33.311Z,46.28
2023-02-19T00:46:59.625Z,48.13
2023-02-19T00:49:26.111Z,45.55
2023-02-19T00:51:52.712Z,45.05
2023-02-19T00:54:19.115Z,45.10
2023-02-19T00:56:45.484Z,44.38
2023-02-19T00:59:12.416Z,43.83
2023-02-19T01:01:38.701Z,44.13
2023-02-19T01:04:06.676Z,42.08
2023-02-19T01:06:33.285Z,43.70
2023-02-19T01:08:59.657Z,40.50
2023-02-19T01:11:26.220Z,39.03
2023-02-19T01:13:52.572Z,40.75
2023-02-19T01:16:18.953Z,41.22
2023-02-19T01:18:45.428Z,40.10
2023-02-19T01:21:12.051Z,38.08
2023-02-19T01:23:38.514Z,38.83
2023-02-19T01:26:05.072Z,38.42
2023-02-19T01:28:31.438Z,37.95
2023-02-19T01:30:57.842Z,35.40
2023-02-19T01:33:24.284Z,37.35
2023-02-19T01:35:50.681Z,34.85
2023-02-19T01:38:17.178Z,35.42
2023-02-19T01:40:43.545Z,33.58
2023-02-19T01:43:09.940Z,34.17
2023-02-19T01:45:36.610Z,34.67
2023-02-19T01:48:03.474Z,33.78
2023-02-19T01:50:30.274Z,32.72
2023-02-19T01:52:56.694Z,34.60
2023-02-19T01:55:23.271Z,33.03
2023-02-19T01:57:49.606Z,32.92
2023-02-19T02:00:16.116Z,32.80
2023-02-19T02:02:42.822Z,29.92
2023-02-19T02:05:11.217Z,30.70
2023-02-19T02:07:41.482Z,31.00
2023-02-19T02:10:08.468Z,29.77
2023-02-19T02:12:36.691Z,30.15
2023-02-19T02:15:03.054Z,29.25
2023-02-19T02:17:30.044Z,29.80
2023-02-19T02:19:56.538Z,28.75
2023-02-19T02:22:22.937Z,29.30
2023-02-19T02:24:49.940Z,29.17
2023-02-19T02:27:16.855Z,29.23
2023-02-19T02:29:43.472Z,29.23
2023-02-19T02:32:09.887Z,27.67
2023-02-19T02:34:36.213Z,28.98
2023-02-19T02:37:02.980Z,25.23
2023-02-19T02:39:29.495Z,26.00
2023-02-19T02:41:55.958Z,26.27
2023-02-19T02:44:22.355Z,24.85
2023-02-19T02:46:48.994Z,27.85
2023-02-19T02:49:15.568Z,26.67
2023-02-19T02:51:42.008Z,25.58
2023-02-19T02:54:08.710Z,25.70
2023-02-19T02:56:35.482Z,24.67
2023-02-19T02:59:01.835Z,23.55
2023-02-19T03:01:28.561Z,23.33
2023-02-19T03:03:56.445Z,24.20
2023-02-19T03:06:22.879Z,23.33
2023-02-19T03:08:49.413Z,23.23
2023-02-19T03:11:15.766Z,22.90
2023-02-19T03:13:42.153Z,23.20
2023-02-19T03:16:08.581Z,22.75
2023-02-19T03:18:35.664Z,21.13
2023-02-19T03:21:02.655Z,23.35
2023-02-19T03:23:29.675Z,21.17
2023-02-19T03:25:56.105Z,22.30
2023-02-19T03:28:22.511Z,22.77
2023-02-19T03:30:48.930Z,21.52
2023-02-19T03:33:15.325Z,20.33
2023-02-19T03:35:42.000Z,20.33
2023-02-19T03:38:08.638Z,20.88
2023-02-19T03:40:35.396Z,21.27
2023-02-19T03:43:01.751Z,20.02
2023-02-19T03:45:28.187Z,20.80
2023-02-19T03:47:55.023Z,19.35
2023-02-19T03:50:21.509Z,19.75
2023-02-19T03:52:47.963Z,19.30
2023-02-19T03:55:14.330Z,19.73
2023-02-19T03:57:40.720Z,20.20
2023-02-19T04:00:07.027Z,19.02
2023-02-19T04:02:33.467Z,19.42
2023-02-19T04:05:00.392Z,19.75
2023-02-19T04:07:28.825Z,18.13
2023-02-19T04:09:55.793Z,17.02
2023-02-19T04:12:23.761Z,16.85
2023-02-19T04:14:50.653Z,17.23
2023-02-19T04:17:17.125Z,17.58
2023-02-19T04:19:43.474Z,17.40
2023-02-19T04:22:09.924Z,17.25
2023-02-19T04:24:36.383Z,17.75
2023-02-19T04:27:02.973Z,16.55
2023-02-19T04:29:29.353Z,17.20
2023-02-19T04:31:55.733Z,17.52
2023-02-19T04:34:22.383Z,16.17
2023-02-19T04:36:49.036Z,15.75
2023-02-19T04:39:15.581Z,15.48
2023-02-19T04:41:41.932Z,15.35
2023-02-19T04:44:08.286Z,14.45
2023-02-19T04:46:34.747Z,14.77
2023-02-19T04:49:01.305Z,16.23
2023-02-19T04:51:27.670Z,14.35
2023-02-19T04:53:54.192Z,14.27
2023-02-19T04:56:20.549Z,12.90
2023-02-19T04:58:47.009Z,14.60
2023-02-19T05:01:13.752Z,15.13
2023-02-19T05:03:40.240Z,14.23
2023-02-19T05:06:07.004Z,14.25
2023-02-19T05:08:33.361Z,13.68
2023-02-19T05:10:59.688Z,12.10
2023-02-19T05:13:26.106Z,13.68
2023-02-19T05:15:52.743Z,12.70
2023-02-19T05:18:19.696Z,12.13
2023-02-19T05:20:46.063Z,13.88
2023-02-19T05:23:12.459Z,12.77
2023-02-19T05:25:38.848Z,13.27
2023-02-19T05:28:05.465Z,13.35
2023-02-19T05:30:32.178Z,13.02
2023-02-19T05:32:58.761Z,12.13
2023-02-19T05:35:25.133Z,12.57
2023-02-19T05:37:51.598Z,10.25
2023-02-19T05:40:18.021Z,11.45
2023-02-19T05:42:44.742Z,10.52
2023-02-19T05:45:11.902Z,11.13
2023-02-19T05:47:38.605Z,9.75
2023-02-19T05:50:05.112Z,10.13
2023-02-19T05:52:31.465Z,9.93
2023-02-19T05:54:58.148Z,10.38
2023-02-19T05:57:24.587Z,10.07
2023-02-19T05:59:50.979Z,11.15
2023-02-19T06:02:17.439Z,9.93
2023-02-19T06:04:43.845Z,10.95
2023-02-19T06:07:10.159Z,12.15
2023-02-19T06:09:36.478Z,9.32
2023-02-19T06:12:02.924Z,10.07
2023-02-19T06:14:29.365Z,9.57
2023-02-19T06:16:55.669Z,10.43
2023-02-19T06:19:22.023Z,8.38
2023-02-19T06:21:48.570Z,10.00
2023-02-19T06:24:15.068Z,9.35
2023-02-19T06:26:42.116Z,9.07
2023-02-19T06:29:08.864Z,9.65
2023-02-19T06:31:35.374Z,9.02
2023-02-19T06:34:01.906Z,9.75
2023-02-19T06:36:28.351Z,10.07
2023-02-19T06:38:54.829Z,9.15
2023-02-19T06:41:21.159Z,9.48
2023-02-19T06:43:47.770Z,8.80
2023-02-19T06:46:14.249Z,9.02
2023-02-19T06:48:40.662Z,8.65
2023-02-19T06:51:07.038Z,7.80
2023-02-19T06:53:33.327Z,8.90
2023-02-19T06:55:59.698Z,9.23
2023-02-19T06:58:26.465Z,9.50
2023-02-19T07:00:52.807Z,8.27
2023-02-19T07:03:19.375Z,8.30
2023-02-19T07:05:45.686Z,9.30
2023-02-19T07:08:12.105Z,8.52
2023-02-19T07:10:38.934Z,8.60
2023-02-19T07:13:05.531Z,9.23
2023-02-19T07:15:31.885Z,10.35
2023-02-19T07:17:58.482Z,10.73
2023-02-19T07:20:24.925Z,8.35
2023-02-19T07:22:51.280Z,8.85
2023-02-19T07:25:17.602Z,8.73
2023-02-19T07:27:44.189Z,8.32
2023-02-19T07:30:11.166Z,8.48
2023-02-19T07:32:37.490Z,8.10
2023-02-19T07:35:04.239Z,8.32
2023-02-19T07:37:30.607Z,8.10
2023-02-19T07:39:57.019Z,8.68
2023-02-19T07:42:23.773Z,8.48
2023-02-19T07:44:50.193Z,8.63
2023-02-19T07:47:16.543Z,9.43
2023-02-19T07:49:43.342Z,9.50
2023-02-19T07:52:09.686Z,8.40
2023-02-19T07:54:36.220Z,9.07
2023-02-19T07:57:03.240Z,10.07
2023-02-19T07:59:29.578Z,10.45
2023-02-19T08:01:55.916Z,9.27
2023-02-19T08:04:22.316Z,10.68
2023-02-19T08:06:48.977Z,11.27
2023-02-19T08:09:15.498Z,9.85
2023-02-19T08:11:41.862Z,11.20
2023-02-19T08:14:08.186Z,10.52
2023-02-19T08:16:42.935Z,9.27
2023-02-19T08:19:09.926Z,9.23
2023-02-19T08:21:36.501Z,7.80
2023-02-19T08:24:02.998Z,10.48
2023-02-19T08:26:29.354Z,10.40
2023-02-19T08:28:55.725Z,10.02
2023-02-19T08:31:22.177Z,9.27
2023-02-19T08:33:48.723Z,9.80
2023-02-19T08:36:15.347Z,9.23
2023-02-19T08:38:41.673Z,8.50
2023-02-19T08:41:08.454Z,8.40
2023-02-19T08:43:35.091Z,8.88
2023-02-19T08:46:01.769Z,9.35
2023-02-19T08:48:28.392Z,9.30
2023-02-19T08:50:54.993Z,7.80
2023-02-19T08:53:21.345Z,8.43
2023-02-19T08:55:47.679Z,8.60
2023-02-19T08:58:14.639Z,8.75
2023-02-19T09:00:41.242Z,6.80
2023-02-19T09:03:07.912Z,9.18
2023-02-19T09:05:34.340Z,8.82
2023-02-19T09:08:00.694Z,7.28
2023-02-19T09:10:27.104Z,8.75
2023-02-19T09:12:53.443Z,7.50
2023-02-19T09:15:19.819Z,9.10
2023-02-19T09:17:46.208Z,8.23
2023-02-19T09:20:12.778Z,7.68
2023-02-19T09:22:39.110Z,8.23
2023-02-19T09:25:05.619Z,7.32
2023-02-19T09:27:32.009Z,7.95
2023-02-19T09:29:58.582Z,7.88
2023-02-19T09:32:25.369Z,7.88
2023-02-19T09:34:51.734Z,7.55
2023-02-19T09:37:18.250Z,8.43
2023-02-19T09:39:44.803Z,7.32
2023-02-19T09:42:11.101Z,8.40
2023-02-19T09:44:37.516Z,6.45
2023-02-19T09:47:03.838Z,7.32
2023-02-19T09:49:30.131Z,8.25
2023-02-19T09:51:56.739Z,8.07
2023-02-19T09:54:23.448Z,7.25
2023-02-19T09:56:49.875Z,7.65
2023-02-19T09:59:16.317Z,6.55
2023-02-19T10:01:42.656Z,7.15
2023-02-19T10:04:09.693Z,6.75
2023-02-19T10:06:36.120Z,6.10
2023-02-19T10:09:02.578Z,7.40
2023-02-19T10:11:28.903Z,7.55
2023-02-19T10:13:55.229Z,5.57
2023-02-19T10:16:21.581Z,7.63
2023-02-19T10:18:47.918Z,6.03
2023-02-19T10:21:14.225Z,5.93
2023-02-19T10:23:40.809Z,7.00
2023-02-19T10:26:07.441Z,7.10
2023-02-19T10:28:33.986Z,7.50
2023-02-19T10:31:00.346Z,7.10
2023-02-19T10:33:26.714Z,7.35
2023-02-19T10:35:53.258Z,6.45
2023-02-19T10:38:19.587Z,6.47
2023-02-19T10:40:45.933Z,6.57
2023-02-19T10:43:12.418Z,6.18
2023-02-19T10:45:38.720Z,6.18
2023-02-19T10:48:05.258Z,7.50
2023-02-19T10:50:32.227Z,5.32
2023-02-19T10:52:58.640Z,5.78
2023-02-19T10:55:25.098Z,5.82
2023-02-19T10:57:51.426Z,5.85
2023-02-19T11:00:17.784Z,6.50
2023-02-19T11:02:44.158Z,7.15
2023-02-19T11:05:11.007Z,6.55
2023-02-19T11:07:37.395Z,6.30
2023-02-19T11:10:04.178Z,6.65
2023-02-19T11:12:30.502Z,6.07
2023-02-19T11:14:56.912Z,10.25
2023-02-19T11:17:23.415Z,5.60
2023-02-19T11:19:49.889Z,5.82
2023-02-19T11:22:16.210Z,7.88
2023-02-19T11:24:42.503Z,7.13
2023-02-19T11:27:08.904Z,5.55
2023-02-19T11:29:35.309Z,5.80
2023-02-19T11:32:01.971Z,6.15
2023-02-19T11:34:28.402Z,6.40
2023-02-19T11:36:54.918Z,5.90
2023-02-19T11:39:21.248Z,5.22
2023-02-19T11:41:47.833Z,4.80
2023-02-19T11:44:14.224Z,8.25
2023-02-19T11:46:40.689Z,5.38
2023-02-19T11:49:07.451Z,6.03
2023-02-19T11:51:33.921Z,6.15
2023-02-19T11:54:00.869Z,4.72
2023-02-19T11:56:27.387Z,6.35
2023-02-19T11:58:54.259Z,6.13
2023-02-19T12:01:21.005Z,6.28
2023-02-19T12:03:47.782Z,4.38
2023-02-19T12:06:14.099Z,5.15
2023-02-19T12:08:40.461Z,5.38
2023-02-19T12:11:07.152Z,5.57
2023-02-19T12:13:33.448Z,5.45
2023-02-19T12:15:59.874Z,4.75
2023-02-19T12:18:26.549Z,6.35
2023-02-19T12:20:53.250Z,6.45
2023-02-19T12:23:19.851Z,5.20
2023-02-19T12:25:46.576Z,5.55
2023-02-19T12:28:12.925Z,4.15
2023-02-19T12:30:39.969Z,5.88
2023-02-19T12:33:06.441Z,5.80
2023-02-19T12:35:33.042Z,4.80
2023-02-19T12:37:59.503Z,4.53
2023-02-19T12:40:25.915Z,5.03
2023-02-19T12:42:52.305Z,4.43
2023-02-19T12:45:18.787Z,5.18
2023-02-19T12:47:45.154Z,5.78
2023-02-19T12:50:11.793Z,5.03
2023-02-19T12:52:38.140Z,6.70
2023-02-19T12:55:04.795Z,4.20
2023-02-19T12:57:31.124Z,4.75
2023-02-19T12:59:57.498Z,5.60
2023-02-19T13:02:24.146Z,4.43
2023-02-19T13:04:50.527Z,5.72
2023-02-19T13:07:16.933Z,5.35
2023-02-19T13:09:43.508Z,6.90
2023-02-19T13:12:09.809Z,3.95
2023-02-19T13:14:36.158Z,6.05
2023-02-19T13:17:02.516Z,6.20
2023-02-19T13:19:28.960Z,5.38
2023-02-19T13:21:55.282Z,5.28
2023-02-19T13:24:21.951Z,3.97
2023-02-19T13:26:48.317Z,4.82
2023-02-19T13:29:14.587Z,4.68
2023-02-19T13:31:41.256Z,4.85
2023-02-19T13:34:07.609Z,5.28
2023-02-19T13:36:34.132Z,5.15
2023-02-19T13:39:00.467Z,4.07
2023-02-19T13:41:26.749Z,4.60
2023-02-19T13:43:53.163Z,6.80
2023-02-19T13:46:19.710Z,89.50
2023-02-19T13:48:46.098Z,190.32
2023-02-19T13:51:12.884Z,171.15
2023-02-19T13:53:39.519Z,150.70
2023-02-19T13:56:06.194Z,144.60
2023-02-19T13:58:32.763Z,126.82
2023-02-19T14:00:59.300Z,115.72
2023-02-19T14:03:25.789Z,106.30
2023-02-19T14:05:52.502Z,96.88
2023-02-19T14:08:18.887Z,90.32
2023-02-19T14:10:45.224Z,80.40
2023-02-19T14:13:12.157Z,78.72
2023-02-19T14:15:38.671Z,130.68
2023-02-19T14:18:05.156Z,254.52
2023-02-19T14:20:31.797Z,243.18
2023-02-19T14:22:58.336Z,186.05
2023-02-19T14:25:24.664Z,172.05
2023-02-19T14:27:51.434Z,165.52
2023-02-19T14:30:17.830Z,150.23
2023-02-19T14:32:47.415Z,136.95
2023-02-19T14:35:17.298Z,132.35
2023-02-19T14:37:43.678Z,121.40
2023-02-19T14:40:10.325Z,166.27
2023-02-19T14:42:36.710Z,268.38
2023-02-19T14:45:03.185Z,313.58
2023-02-19T14:47:29.530Z,273.40
2023-02-19T14:49:55.973Z,249.60
2023-02-19T14:52:22.313Z,243.10
2023-02-19T14:54:48.663Z,217.02
2023-02-19T14:57:15.415Z,201.57
2023-02-19T14:59:41.817Z,191.93
2023-02-19T15:02:08.257Z,233.60
2023-02-19T15:04:35.832Z,280.63
2023-02-19T15:07:02.316Z,297.90
2023-02-19T15:09:29.442Z,267.40
2023-02-19T15:11:55.844Z,250.07
2023-02-19T15:14:22.210Z,230.02
2023-02-19T15:16:49.586Z,209.07
2023-02-19T15:19:16.258Z,201.23
2023-02-19T15:21:42.679Z,184.30
2023-02-19T15:24:09.140Z,171.75
2023-02-19T15:26:36.033Z,165.80
2023-02-19T15:29:02.638Z,259.48
2023-02-19T15:31:29.218Z,344.02
2023-02-19T15:33:56.211Z,293.23
2023-02-19T15:36:22.555Z,279.58
2023-02-19T15:38:49.004Z,261.88
2023-02-19T15:41:15.490Z,239.43
2023-02-19T15:43:41.845Z,232.35
2023-02-19T15:46:08.648Z,214.02
2023-02-19T15:48:34.986Z,206.20
2023-02-19T15:51:01.478Z,189.55
2023-02-19T15:53:27.870Z,188.20
2023-02-19T15:55:54.281Z,206.50
2023-02-19T15:58:21.288Z,301.42
2023-02-19T16:00:47.633Z,351.00
2023-02-19T16:03:14.026Z,294.08
2023-02-19T16:05:40.802Z,283.42
2023-02-19T16:08:07.165Z,335.05
2023-02-19T16:10:33.505Z,438.33
2023-02-19T16:12:59.966Z,467.77
2023-02-19T16:15:26.436Z,439.60
2023-02-19T16:17:52.834Z,404.17
2023-02-19T16:20:19.599Z,402.05
2023-02-19T16:22:46.050Z,441.02
2023-02-19T16:25:13.244Z,389.48
2023-02-19T16:27:39.707Z,362.58
2023-02-19T16:30:06.212Z,321.90
2023-02-19T16:32:32.670Z,329.13
2023-02-19T16:34:59.189Z,290.73
2023-02-19T16:37:25.610Z,258.70
2023-02-19T16:39:51.913Z,246.73
2023-02-19T16:42:18.698Z,241.88
2023-02-19T16:44:45.616Z,226.55
2023-02-19T16:47:12.189Z,209.30
2023-02-19T16:49:38.746Z,199.75
2023-02-19T16:52:05.370Z,188.63
2023-02-19T16:54:31.831Z,178.95
2023-02-19T16:56:58.267Z,168.55
2023-02-19T16:59:25.025Z,162.48
2023-02-19T17:01:51.475Z,155.05
2023-02-19T17:04:18.256Z,141.98
2023-02-19T17:06:44.662Z,131.35
2023-02-19T17:09:11.212Z,124.18
2023-02-19T17:11:37.883Z,118.20
2023-02-19T17:14:04.286Z,112.72
2023-02-19T17:16:30.619Z,107.10
2023-02-19T17:18:57.159Z,99.88
2023-02-19T17:21:23.570Z,99.30
2023-02-19T17:23:49.899Z,92.53
2023-02-19T17:26:16.230Z,91.47
2023-02-19T17:28:42.533Z,167.63
2023-02-19T17:31:09.027Z,255.45
2023-02-19T17:33:35.450Z,231.05
2023-02-19T17:36:01.795Z,213.90
2023-02-19T17:38:28.109Z,203.23
2023-02-19T17:40:54.489Z,188.65
2023-02-19T17:43:21.249Z,176.93
2023-02-19T17:45:47.746Z,166.45
2023-02-19T17:48:14.101Z,164.10
2023-02-19T17:50:40.621Z,257.85
2023-02-19T17:53:07.423Z,309.73
2023-02-19T17:55:33.953Z,286.60
2023-02-19T17:58:00.572Z,260.35
2023-02-19T18:00:26.866Z,251.43
2023-02-19T18:02:53.210Z,239.45
2023-02-19T18:05:19.829Z,228.68
2023-02-19T18:07:46.392Z,217.05
2023-02-19T18:10:12.746Z,199.27
2023-02-19T18:12:39.561Z,191.27
2023-02-19T18:15:05.926Z,342.55
2023-02-19T18:17:32.411Z,351.35
2023-02-19T18:19:58.856Z,317.08
2023-02-19T18:22:25.143Z,307.10
2023-02-19T18:24:51.568Z,289.73
2023-02-19T18:27:18.151Z,265.70
2023-02-19T18:29:44.878Z,253.43
2023-02-19T18:32:11.278Z,255.48
2023-02-19T18:34:38.215Z,236.02
2023-02-19T18:37:04.544Z,227.25
2023-02-19T18:39:30.884Z,217.13
2023-02-19T18:41:57.208Z,208.02
2023-02-19T18:44:24.127Z,357.45
2023-02-19T18:46:50.588Z,430.35
2023-02-19T18:49:16.986Z,410.52
2023-02-19T18:51:43.541Z,386.95
2023-02-19T18:54:10.024Z,368.67
2023-02-19T18:56:36.892Z,360.60
2023-02-19T18:59:03.369Z,463.40
2023-02-19T19:01:29.760Z,681.50
2023-02-19T19:03:56.673Z,635.50
2023-02-19T19:06:23.075Z,583.15
2023-02-19T19:08:49.662Z,556.40
2023-02-19T19:11:16.028Z,524.47
2023-02-19T19:13:42.383Z,509.35
2023-02-19T19:16:09.643Z,494.48
2023-02-19T19:18:36.515Z,473.75
2023-02-19T19:21:03.075Z,689.58
2023-02-19T19:23:29.413Z,703.97
2023-02-19T19:25:55.836Z,660.70
2023-02-19T19:28:22.314Z,619.00
2023-02-19T19:30:49.402Z,591.67
2023-02-19T19:33:17.749Z,572.63
2023-02-19T19:35:44.882Z,551.83
2023-02-19T19:38:12.331Z,533.50
2023-02-19T19:40:40.228Z,519.22
2023-02-19T19:43:07.950Z,505.15
2023-02-19T19:45:34.424Z,703.88
2023-02-19T19:48:00.805Z,671.08
2023-02-19T19:50:27.893Z,598.88
2023-02-19T19:52:55.169Z,634.45
2023-02-19T19:55:21.871Z,632.97
2023-02-19T19:57:48.271Z,613.55
2023-02-19T20:00:14.578Z,594.42
2023-02-19T20:02:41.235Z,618.88
2023-02-19T20:05:07.652Z,599.85
2023-02-19T20:07:34.007Z,590.58
2023-02-19T20:10:00.416Z,609.63
2023-02-19T20:12:27.375Z,608.88
2023-02-19T20:14:54.288Z,590.88
2023-02-19T20:17:20.917Z,583.85
2023-02-19T20:19:47.277Z,566.00
2023-02-19T20:22:13.854Z,557.22
2023-02-19T20:24:40.237Z,552.85
2023-02-19T20:27:06.991Z,530.47
2023-02-19T20:29:33.608Z,530.35
2023-02-19T20:32:00.490Z,512.33
2023-02-19T20:34:26.904Z,515.63
2023-02-19T20:36:53.521Z,495.95
2023-02-19T20:39:20.100Z,494.52
2023-02-19T20:41:46.612Z,483.02
2023-02-19T20:44:13.100Z,478.25
2023-02-19T20:46:39.939Z,477.70
2023-02-19T20:49:06.675Z,465.15
2023-02-19T20:51:33.329Z,465.23
2023-02-19T20:53:59.821Z,451.10
2023-02-19T20:56:26.246Z,448.25
2023-02-19T20:58:53.282Z,437.90
2023-02-19T21:01:19.787Z,429.65
2023-02-19T21:03:46.185Z,427.08
2023-02-19T21:06:12.882Z,423.35
2023-02-19T21:08:39.885Z,412.60
2023-02-19T21:11:06.566Z,407.80
2023-02-19T21:13:33.061Z,400.02
2023-02-19T21:15:59.456Z,398.40
2023-02-19T21:18:26.334Z,391.50
2023-02-19T21:20:53.058Z,385.73
2023-02-19T21:23:19.542Z,382.88
2023-02-19T21:25:45.847Z,372.23
2023-02-19T21:28:12.158Z,363.13
2023-02-19T21:30:38.549Z,361.98
2023-02-19T21:33:05.017Z,350.25
2023-02-19T21:35:31.641Z,348.35
2023-02-19T21:37:58.036Z,339.83
2023-02-19T21:40:24.508Z,327.48
2023-02-19T21:42:51.074Z,326.73
2023-02-19T21:45:17.417Z,321.98
2023-02-19T21:47:43.742Z,315.30
2023-02-19T21:50:10.156Z,310.98
2023-02-19T21:52:36.541Z,300.73
2023-02-19T21:55:02.808Z,293.48
2023-02-19T21:57:29.287Z,287.60
2023-02-19T21:59:55.853Z,283.60
2023-02-19T22:02:22.280Z,285.10
2023-02-19T22:04:49.093Z,280.13
2023-02-19T22:07:15.436Z,278.50
2023-02-19T22:09:42.232Z,263.52
2023-02-19T22:12:08.559Z,266.98
2023-02-19T22:14:35.043Z,254.38
2023-02-19T22:17:01.751Z,253.52
2023-02-19T22:19:28.442Z,245.55
2023-02-19T22:21:54.789Z,241.10
2023-02-19T22:24:21.154Z,236.57
2023-02-19T22:26:47.518Z,233.50
2023-02-19T22:29:13.983Z,230.48
2023-02-19T22:31:40.374Z,229.10
2023-02-19T22:34:07.294Z,224.02
2023-02-19T22:36:34.127Z,221.57
2023-02-19T22:39:00.561Z,216.68
2023-02-19T22:41:27.279Z,210.35
2023-02-19T22:43:53.695Z,207.65
2023-02-19T22:46:20.080Z,199.85
2023-02-19T22:48:46.727Z,199.02
2023-02-19T22:51:13.163Z,193.20
2023-02-19T22:53:39.592Z,188.40
2023-02-19T22:56:05.960Z,186.07
2023-02-19T22:58:32.308Z,187.18
2023-02-19T23:00:58.837Z,178.70
2023-02-19T23:03:25.795Z,175.48
2023-02-19T23:05:52.150Z,169.57
2023-02-19T23:08:18.894Z,166.40
2023-02-19T23:10:45.295Z,169.27
2023-02-19T23:13:11.804Z,165.98
2023-02-19T23:15:38.172Z,161.75
2023-02-19T23:18:04.788Z,161.40
2023-02-19T23:20:31.126Z,154.77
2023-02-19T23:22:57.584Z,154.35
2023-02-19T23:25:23.938Z,150.35
2023-02-19T23:27:50.244Z,142.45
2023-02-19T23:30:16.736Z,139.63
2023-02-19T23:32:43.369Z,138.52
2023-02-19T23:35:09.695Z,139.15
2023-02-19T23:37:36.123Z,137.32
2023-02-19T23:40:02.805Z,134.13
2023-02-19T23:42:29.208Z,130.00
2023-02-19T23:44:55.533Z,129.43
2023-02-19T23:47:21.929Z,124.88
2023-02-19T23:49:48.339Z,125.85
2023-02-19T23:52:15.266Z,119.78
2023-02-19T23:54:41.752Z,118.68
2023-02-19T23:57:08.679Z,118.30
2023-02-19T23:59:35.038Z,116.60
